createdAt,value
2018-08-28T00:01:25.109Z,95157.45
2018-08-28T00:03:54.454Z,95164.06
2018-08-28T00:06:23.584Z,95173.37
2018-08-28T00:08:52.740Z,95176.13
2018-08-28T00:11:21.848Z,95187.95
2018-08-28T00:13:50.860Z,95182.42
2018-08-28T00:16:19.953Z,95159.78
2018-08-28T00:18:49.072Z,95159.67
2018-08-28T00:21:18.104Z,95172.80
2018-08-28T00:23:47.213Z,95184.48
2018-08-28T00:26:16.295Z,95184.50
2018-08-28T00:28:45.341Z,95187.02
2018-08-28T00:31:14.420Z,95185.48
2018-08-28T00:33:43.597Z,95191.36
2018-08-28T00:36:12.607Z,95179.58
2018-08-28T00:38:41.753Z,95186.39
2018-08-28T00:41:10.817Z,95182.16
2018-08-28T00:43:39.864Z,95181.08
2018-08-28T00:46:09.017Z,95169.58
2018-08-28T00:48:38.109Z,95163.73
2018-08-28T00:51:07.156Z,95162.84
2018-08-28T00:53:36.308Z,95164.80
2018-08-28T00:56:05.354Z,95173.03
2018-08-28T00:58:34.469Z,95162.63
2018-08-28T01:01:03.538Z,95159.05
2018-08-28T01:03:32.561Z,95168.75
2018-08-28T01:06:01.590Z,95165.44
2018-08-28T01:08:30.550Z,95173.41
2018-08-28T01:10:59.670Z,95176.37
2018-08-28T01:13:28.679Z,95168.80
2018-08-28T01:15:57.939Z,95171.84
2018-08-28T01:18:26.943Z,95168.64
2018-08-28T01:20:55.976Z,95182.91
2018-08-28T01:23:24.990Z,95185.82
2018-08-28T01:25:54.021Z,95185.89
2018-08-28T01:28:23.186Z,95176.93
2018-08-28T01:30:52.219Z,95183.73
2018-08-28T01:33:21.304Z,95168.08
2018-08-28T01:35:50.367Z,95167.44
2018-08-28T01:38:19.463Z,95179.91
2018-08-28T01:40:48.458Z,95187.78
2018-08-28T01:43:24.009Z,95185.72
2018-08-28T01:45:54.731Z,95171.38
2018-08-28T01:48:23.736Z,95173.28
2018-08-28T01:50:52.823Z,95172.36
2018-08-28T01:53:22.015Z,95170.48
2018-08-28T01:55:51.085Z,95177.53
2018-08-28T01:58:20.181Z,95169.28
2018-08-28T02:00:49.140Z,95171.50
2018-08-28T02:03:18.291Z,95169.90
2018-08-28T02:05:47.348Z,95167.73
2018-08-28T02:08:16.334Z,95177.91
2018-08-28T02:10:45.412Z,95177.06
2018-08-28T02:13:14.615Z,95177.27
2018-08-28T02:15:43.709Z,95175.56
2018-08-28T02:18:12.773Z,95187.34
2018-08-28T02:20:41.897Z,95173.23
2018-08-28T02:23:10.867Z,95174.30
2018-08-28T02:25:39.863Z,95169.27
2018-08-28T02:28:08.917Z,95169.77
2018-08-28T02:30:38.000Z,95176.02
2018-08-28T02:33:07.093Z,95170.91
2018-08-28T02:35:36.168Z,95168.87
2018-08-28T02:38:05.271Z,95181.73
2018-08-28T02:40:34.372Z,95171.88
2018-08-28T02:43:03.401Z,95173.94
2018-08-28T02:45:32.630Z,95181.09
2018-08-28T02:48:01.725Z,95175.84
2018-08-28T02:50:30.967Z,95180.14
2018-08-28T02:53:00.074Z,95176.39
2018-08-28T02:55:29.223Z,95185.48
2018-08-28T02:57:58.208Z,95189.53
2018-08-28T03:00:27.241Z,95181.91
2018-08-28T03:02:56.410Z,95188.26
2018-08-28T03:05:25.648Z,95181.68
2018-08-28T03:07:54.610Z,95189.48
2018-08-28T03:10:27.793Z,95189.72
2018-08-28T03:12:57.716Z,95205.48
2018-08-28T03:15:26.786Z,95208.83
2018-08-28T03:17:55.873Z,95208.97
2018-08-28T03:20:24.915Z,95214.10
2018-08-28T03:22:53.899Z,95227.09
2018-08-28T03:25:22.960Z,95231.76
2018-08-28T03:27:52.539Z,95251.80
2018-08-28T03:30:22.621Z,95243.55
2018-08-28T03:32:53.708Z,95241.89
2018-08-28T03:35:22.752Z,95241.38
2018-08-28T03:37:51.792Z,95240.74
2018-08-28T03:40:20.929Z,95237.11
2018-08-28T03:42:49.918Z,95249.47
2018-08-28T03:45:18.909Z,95238.35
2018-08-28T03:47:47.934Z,95242.75
2018-08-28T03:50:16.909Z,95237.95
2018-08-28T03:52:45.887Z,95247.91
2018-08-28T03:55:15.073Z,95254.59
2018-08-28T03:57:44.284Z,95245.47
2018-08-28T04:00:13.360Z,95243.84
2018-08-28T04:02:42.434Z,95242.78
2018-08-28T04:05:11.425Z,95242.08
2018-08-28T04:07:41.014Z,95243.66
2018-08-28T04:10:10.002Z,95239.55
2018-08-28T04:12:39.071Z,95248.11
2018-08-28T04:15:08.500Z,95253.08
2018-08-28T04:17:41.828Z,95252.52
2018-08-28T04:20:11.078Z,95252.69
2018-08-28T04:22:40.176Z,95260.87
2018-08-28T04:25:09.171Z,95271.59
2018-08-28T04:27:38.220Z,95265.22
2018-08-28T04:30:07.984Z,95264.16
2018-08-28T04:32:37.075Z,95262.57
2018-08-28T04:35:06.410Z,95261.13
2018-08-28T04:37:36.299Z,95263.78
2018-08-28T04:40:05.737Z,95265.10
2018-08-28T04:42:34.887Z,95265.94
2018-08-28T04:45:04.020Z,95263.52
2018-08-28T04:47:32.984Z,95261.16
2018-08-28T04:50:02.120Z,95265.09
2018-08-28T04:52:31.164Z,95263.79
2018-08-28T04:55:00.221Z,95266.09
2018-08-28T04:57:29.260Z,95260.50
2018-08-28T04:59:58.287Z,95259.51
2018-08-28T05:02:31.321Z,95259.00
2018-08-28T05:05:00.347Z,95257.05
2018-08-28T05:07:29.527Z,95263.89
2018-08-28T05:09:58.510Z,95263.20
2018-08-28T05:12:27.720Z,95271.84
2018-08-28T05:14:56.806Z,95266.92
2018-08-28T05:17:25.809Z,95267.69
2018-08-28T05:19:55.114Z,95273.12
2018-08-28T05:22:24.787Z,95273.90
2018-08-28T05:24:53.901Z,95280.32
2018-08-28T05:27:23.126Z,95270.43
2018-08-28T05:29:52.140Z,95269.82
2018-08-28T05:32:21.084Z,95274.09
2018-08-28T05:34:50.186Z,95280.42
2018-08-28T05:37:19.186Z,95276.80
2018-08-28T05:39:48.144Z,95283.27
2018-08-28T05:42:17.169Z,95278.90
2018-08-28T05:44:46.202Z,95281.20
2018-08-28T05:47:15.124Z,95272.02
2018-08-28T05:49:44.142Z,95289.89
2018-08-28T05:52:13.272Z,95290.03
2018-08-28T05:54:42.303Z,95285.55
2018-08-28T05:57:11.295Z,95274.13
2018-08-28T05:59:40.450Z,95272.21
2018-08-28T06:02:09.688Z,95290.98
2018-08-28T06:04:38.723Z,95287.52
2018-08-28T06:07:07.751Z,95293.39
2018-08-28T06:09:36.847Z,95282.87
2018-08-28T06:12:05.929Z,95280.41
2018-08-28T06:14:34.879Z,95294.69
2018-08-28T06:17:03.927Z,95293.61
2018-08-28T06:19:32.970Z,95290.33
2018-08-28T06:22:01.938Z,95292.87
2018-08-28T06:24:30.959Z,95303.47
2018-08-28T06:27:00.008Z,95301.38
2018-08-28T06:29:29.008Z,95307.81
2018-08-28T06:31:57.994Z,95306.36
2018-08-28T06:34:27.032Z,95299.83
2018-08-28T06:36:56.107Z,95298.03
2018-08-28T06:39:25.134Z,95300.16
2018-08-28T06:41:54.131Z,95302.34
2018-08-28T06:44:23.143Z,95306.41
2018-08-28T06:46:52.197Z,95311.00
2018-08-28T06:49:21.293Z,95302.17
2018-08-28T06:51:50.340Z,95309.80
2018-08-28T06:54:19.605Z,95309.94
2018-08-28T06:56:48.764Z,95313.23
2018-08-28T06:59:17.789Z,95316.08
2018-08-28T07:01:46.763Z,95305.88
2018-08-28T07:04:15.697Z,95319.02
2018-08-28T07:06:44.720Z,95316.95
2018-08-28T07:09:13.629Z,95323.14
2018-08-28T07:11:42.832Z,95318.95
2018-08-28T07:14:11.771Z,95320.48
2018-08-28T07:16:40.735Z,95334.25
2018-08-28T07:19:09.763Z,95321.39
2018-08-28T07:21:38.840Z,95328.20
2018-08-28T07:24:07.856Z,95328.05
2018-08-28T07:26:36.977Z,95333.30
2018-08-28T07:29:06.136Z,95333.73
2018-08-28T07:31:35.472Z,95335.66
2018-08-28T07:34:04.505Z,95340.80
2018-08-28T07:36:33.504Z,95342.27
2018-08-28T07:39:02.644Z,95341.97
2018-08-28T07:41:31.599Z,95348.17
2018-08-28T07:44:00.497Z,95361.88
2018-08-28T07:46:29.403Z,95360.70
2018-08-28T07:48:58.369Z,95358.91
2018-08-28T07:51:27.347Z,95366.92
2018-08-28T07:53:56.445Z,95361.29
2018-08-28T07:56:25.534Z,95362.91
2018-08-28T07:58:54.498Z,95361.51
2018-08-28T08:01:23.524Z,95367.09
2018-08-28T08:03:52.501Z,95364.59
2018-08-28T08:06:21.424Z,95359.59
2018-08-28T08:08:50.315Z,95346.08
2018-08-28T08:11:19.350Z,95351.67
2018-08-28T08:13:48.324Z,95357.02
2018-08-28T08:16:17.274Z,95366.44
2018-08-28T08:18:46.202Z,95355.27
2018-08-28T08:21:15.244Z,95358.78
2018-08-28T08:23:44.195Z,95359.25
2018-08-28T08:26:13.220Z,95362.39
2018-08-28T08:28:42.196Z,95357.65
2018-08-28T08:31:11.083Z,95363.36
2018-08-28T08:33:40.175Z,95360.50
2018-08-28T08:36:09.132Z,95356.03
2018-08-28T08:38:38.051Z,95360.05
2018-08-28T08:41:06.963Z,95353.34
2018-08-28T08:43:35.941Z,95358.75
2018-08-28T08:46:05.036Z,95353.16
2018-08-28T08:48:33.928Z,95344.80
2018-08-28T08:51:02.974Z,95350.19
2018-08-28T08:53:32.279Z,95358.27
2018-08-28T08:56:01.256Z,95359.17
2018-08-28T08:58:30.172Z,95353.81
2018-08-28T09:00:59.373Z,95351.01
2018-08-28T09:03:29.444Z,95350.53
2018-08-28T09:05:58.777Z,95348.52
2018-08-28T09:08:27.826Z,95358.66
2018-08-28T09:10:56.936Z,95351.55
2018-08-28T09:13:25.945Z,95352.41
2018-08-28T09:15:54.897Z,95347.68
2018-08-28T09:18:23.895Z,95346.44
2018-08-28T09:20:52.882Z,95347.58
2018-08-28T09:23:21.944Z,95343.70
2018-08-28T09:25:50.847Z,95351.19
2018-08-28T09:28:19.739Z,95350.17
2018-08-28T09:30:48.622Z,95359.53
2018-08-28T09:33:17.579Z,95354.22
2018-08-28T09:35:46.543Z,95344.20
2018-08-28T09:38:15.555Z,95341.27
2018-08-28T09:40:44.573Z,95349.14
2018-08-28T09:43:13.495Z,95344.92
2018-08-28T09:45:42.390Z,95342.24
2018-08-28T09:48:11.444Z,95338.90
2018-08-28T09:50:40.283Z,95336.30
2018-08-28T09:53:09.260Z,95342.91
2018-08-28T09:55:38.250Z,95348.20
2018-08-28T09:58:07.127Z,95341.50
2018-08-28T10:00:41.187Z,95340.16
2018-08-28T10:03:10.170Z,95344.35
2018-08-28T10:05:39.101Z,95342.96
2018-08-28T10:08:08.051Z,95340.06
2018-08-28T10:10:37.023Z,95344.22
2018-08-28T10:13:06.082Z,95339.15
2018-08-28T10:15:35.108Z,95338.59
2018-08-28T10:18:04.183Z,95333.92
2018-08-28T10:20:33.125Z,95328.80
2018-08-28T10:23:02.082Z,95329.26
2018-08-28T10:25:31.131Z,95330.06
2018-08-28T10:28:00.032Z,95333.34
2018-08-28T10:30:29.019Z,95331.97
2018-08-28T10:32:57.923Z,95329.41
2018-08-28T10:35:26.884Z,95325.72
2018-08-28T10:37:55.843Z,95323.65
2018-08-28T10:40:24.728Z,95322.14
2018-08-28T10:42:53.715Z,95310.27
2018-08-28T10:45:22.687Z,95307.39
2018-08-28T10:47:51.793Z,95309.68
2018-08-28T10:50:20.675Z,95309.62
2018-08-28T10:52:49.847Z,95295.41
2018-08-28T10:55:18.821Z,95306.13
2018-08-28T10:57:47.771Z,95299.25
2018-08-28T11:00:16.795Z,95291.27
2018-08-28T11:02:45.664Z,95285.09
2018-08-28T11:05:14.594Z,95289.74
2018-08-28T11:07:43.709Z,95287.97
2018-08-28T11:10:12.771Z,95290.98
2018-08-28T11:12:41.954Z,95287.72
2018-08-28T11:15:11.205Z,95278.84
2018-08-28T11:17:40.252Z,95275.83
2018-08-28T11:20:09.383Z,95277.36
2018-08-28T11:22:38.384Z,95269.95
2018-08-28T11:25:07.302Z,95262.84
2018-08-28T11:27:36.348Z,95263.10
2018-08-28T11:30:05.344Z,95263.34
2018-08-28T11:32:34.247Z,95254.47
2018-08-28T11:35:03.143Z,95256.94
2018-08-28T11:37:32.105Z,95256.58
2018-08-28T11:40:01.013Z,95245.75
2018-08-28T11:42:29.918Z,95252.06
2018-08-28T11:44:58.967Z,95248.67
2018-08-28T11:47:27.926Z,95245.95
2018-08-28T11:49:56.984Z,95236.45
2018-08-28T11:52:25.962Z,95238.88
2018-08-28T11:54:54.849Z,95239.76
2018-08-28T11:57:23.775Z,95233.55
2018-08-28T11:59:52.724Z,95234.63
2018-08-28T12:02:21.687Z,95225.11
2018-08-28T12:04:50.663Z,95224.27
2018-08-28T12:07:19.646Z,95214.78
2018-08-28T12:09:48.700Z,95217.84
2018-08-28T12:12:17.601Z,95217.44
2018-08-28T12:14:46.487Z,95210.72
2018-08-28T12:17:15.517Z,95215.65
2018-08-28T12:19:44.553Z,95210.53
2018-08-28T12:22:13.463Z,95219.93
2018-08-28T12:24:42.385Z,95218.59
2018-08-28T12:27:11.289Z,95217.95
2018-08-28T12:29:40.401Z,95223.84
2018-08-28T12:32:09.339Z,95222.74
2018-08-28T12:34:38.283Z,95221.09
2018-08-28T12:37:07.334Z,95214.02
2018-08-28T12:39:36.219Z,95217.52
2018-08-28T12:42:05.284Z,95218.01
2018-08-28T12:44:34.274Z,95222.74
2018-08-28T12:47:03.394Z,95222.29
2018-08-28T12:49:32.620Z,95221.48
2018-08-28T12:52:01.664Z,95220.08
2018-08-28T12:54:30.711Z,95208.13
2018-08-28T12:56:59.650Z,95213.40
2018-08-28T12:59:31.416Z,95203.34
2018-08-28T13:02:00.376Z,95212.31
2018-08-28T13:04:29.300Z,95208.21
2018-08-28T13:06:58.498Z,95203.34
2018-08-28T13:09:27.517Z,95200.07
2018-08-28T13:11:56.511Z,95215.92
2018-08-28T13:14:25.443Z,95213.26
2018-08-28T13:16:54.514Z,95211.61
2018-08-28T13:19:23.488Z,95209.59
2018-08-28T13:21:52.466Z,95218.36
2018-08-28T13:24:21.515Z,95205.89
2018-08-28T13:26:50.739Z,95208.45
2018-08-28T13:29:19.788Z,95209.44
2018-08-28T13:31:48.847Z,95214.00
2018-08-28T13:34:17.902Z,95204.27
2018-08-28T13:36:46.914Z,95199.44
2018-08-28T13:39:15.927Z,95200.55
2018-08-28T13:41:45.137Z,95201.61
2018-08-28T13:44:14.113Z,95190.80
2018-08-28T13:46:43.013Z,95205.71
2018-08-28T13:49:11.967Z,95211.44
2018-08-28T13:51:40.977Z,95208.20
2018-08-28T13:54:09.999Z,95202.77
2018-08-28T13:56:39.155Z,95205.16
2018-08-28T13:59:08.396Z,95210.39
2018-08-28T14:01:37.407Z,95216.08
2018-08-28T14:04:06.403Z,95223.13
2018-08-28T14:06:35.454Z,95224.14
2018-08-28T14:09:04.666Z,95216.51
2018-08-28T14:11:33.627Z,95210.86
2018-08-28T14:14:02.612Z,95205.84
2018-08-28T14:16:31.590Z,95210.17
2018-08-28T14:19:00.532Z,95205.64
2018-08-28T14:21:29.452Z,95199.01
2018-08-28T14:23:58.411Z,95203.46
2018-08-28T14:26:27.411Z,95206.58
2018-08-28T14:28:56.459Z,95215.08
2018-08-28T14:31:25.403Z,95207.36
2018-08-28T14:33:54.508Z,95210.03
2018-08-28T14:36:23.511Z,95214.03
2018-08-28T14:38:52.504Z,95208.03
2018-08-28T14:41:21.528Z,95211.16
2018-08-28T14:43:50.496Z,95217.72
2018-08-28T14:46:19.560Z,95207.92
2018-08-28T14:48:48.476Z,95212.22
2018-08-28T14:51:17.503Z,95205.97
2018-08-28T14:53:46.631Z,95212.84
2018-08-28T14:56:15.763Z,95208.70
2018-08-28T14:58:45.149Z,95209.47
2018-08-28T15:01:14.300Z,95221.25
2018-08-28T15:03:43.292Z,95210.91
2018-08-28T15:06:12.460Z,95215.99
2018-08-28T15:08:41.524Z,95207.39
2018-08-28T15:11:10.536Z,95212.17
2018-08-28T15:13:39.600Z,95209.38
2018-08-28T15:16:08.559Z,95219.01
2018-08-28T15:18:37.643Z,95215.67
2018-08-28T15:21:06.924Z,95219.17
2018-08-28T15:23:35.873Z,95223.94
2018-08-28T15:26:05.061Z,95221.27
2018-08-28T15:28:34.113Z,95220.80
2018-08-28T15:31:03.185Z,95232.17
2018-08-28T15:33:32.222Z,95232.85
2018-08-28T15:36:01.294Z,95238.63
2018-08-28T15:38:30.301Z,95237.58
2018-08-28T15:40:59.387Z,95235.05
2018-08-28T15:43:28.544Z,95246.69
2018-08-28T15:45:57.760Z,95243.86
2018-08-28T15:48:26.682Z,95260.59
2018-08-28T15:50:55.773Z,95258.07
2018-08-28T15:53:24.737Z,95253.45
2018-08-28T15:55:53.852Z,95247.52
2018-08-28T15:58:22.900Z,95256.88
2018-08-28T16:00:51.899Z,95249.12
2018-08-28T16:03:20.835Z,95252.00
2018-08-28T16:05:49.992Z,95247.20
2018-08-28T16:08:19.079Z,95262.53
2018-08-28T16:10:48.045Z,95269.80
2018-08-28T16:13:16.992Z,95261.81
2018-08-28T16:15:45.988Z,95262.83
2018-08-28T16:18:15.037Z,95257.73
2018-08-28T16:20:44.004Z,95254.65
2018-08-28T16:23:18.188Z,95259.16
2018-08-28T16:25:47.286Z,95266.13
2018-08-28T16:28:16.268Z,95262.52
2018-08-28T16:30:45.364Z,95270.42
2018-08-28T16:33:14.373Z,95277.19
2018-08-28T16:35:43.680Z,95266.62
2018-08-28T16:38:12.659Z,95279.25
2018-08-28T16:40:41.753Z,95277.18
2018-08-28T16:43:10.742Z,95286.28
2018-08-28T16:45:39.704Z,95293.31
2018-08-28T16:48:08.871Z,95291.77
2018-08-28T16:50:37.936Z,95291.75
2018-08-28T16:53:07.200Z,95290.22
2018-08-28T16:55:36.260Z,95291.77
2018-08-28T16:58:05.444Z,95301.23
2018-08-28T17:00:34.619Z,95308.55
2018-08-28T17:03:03.588Z,95309.59
2018-08-28T17:05:32.692Z,95295.26
2018-08-28T17:08:01.920Z,95310.33
2018-08-28T17:10:30.968Z,95318.36
2018-08-28T17:13:00.032Z,95318.25
2018-08-28T17:15:29.162Z,95320.70
2018-08-28T17:17:58.230Z,95328.49
2018-08-28T17:20:27.256Z,95325.59
2018-08-28T17:22:56.380Z,95334.53
2018-08-28T17:25:25.390Z,95321.48
2018-08-28T17:27:54.398Z,95338.54
2018-08-28T17:30:23.513Z,95337.03
2018-08-28T17:32:52.864Z,95343.73
2018-08-28T17:35:21.926Z,95346.88
2018-08-28T17:37:51.095Z,95344.61
2018-08-28T17:40:20.096Z,95350.58
2018-08-28T17:42:49.011Z,95355.97
2018-08-28T17:45:18.733Z,95352.37
2018-08-28T17:47:47.743Z,95358.27
2018-08-28T17:50:16.955Z,95359.26
2018-08-28T17:52:45.959Z,95356.62
2018-08-28T17:55:15.149Z,95366.27
2018-08-28T17:57:44.124Z,95370.10
2018-08-28T18:00:13.320Z,95374.42
2018-08-28T18:02:42.393Z,95382.36
2018-08-28T18:05:11.366Z,95389.59
2018-08-28T18:07:40.364Z,95389.38
2018-08-28T18:10:09.359Z,95404.25
2018-08-28T18:12:38.376Z,95401.02
2018-08-28T18:15:08.144Z,95401.30
2018-08-28T18:17:37.235Z,95399.47
2018-08-28T18:20:06.299Z,95404.45
2018-08-28T18:22:35.393Z,95406.59
2018-08-28T18:25:04.519Z,95408.14
2018-08-28T18:27:33.612Z,95413.31
2018-08-28T18:30:02.636Z,95412.31
2018-08-28T18:32:31.724Z,95412.51
2018-08-28T18:35:00.768Z,95416.18
2018-08-28T18:37:30.156Z,95417.20
2018-08-28T18:39:59.181Z,95423.18
2018-08-28T18:42:28.508Z,95422.17
2018-08-28T18:44:57.653Z,95428.68
2018-08-28T18:47:26.595Z,95420.11
2018-08-28T18:49:55.591Z,95426.34
2018-08-28T18:52:24.553Z,95420.64
2018-08-28T18:54:53.668Z,95425.84
2018-08-28T18:57:22.756Z,95428.10
2018-08-28T18:59:51.949Z,95439.60
2018-08-28T19:02:21.042Z,95435.34
2018-08-28T19:04:50.099Z,95434.02
2018-08-28T19:07:19.157Z,95436.05
2018-08-28T19:09:48.440Z,95443.69
2018-08-28T19:12:17.560Z,95445.20
2018-08-28T19:14:46.707Z,95442.25
2018-08-28T19:17:15.635Z,95440.44
2018-08-28T19:19:45.009Z,95440.63
2018-08-28T19:22:14.164Z,95441.55
2018-08-28T19:24:43.147Z,95439.30
2018-08-28T19:27:12.943Z,95445.81
2018-08-28T19:29:42.202Z,95439.31
2018-08-28T19:32:11.235Z,95441.86
2018-08-28T19:34:40.191Z,95442.25
2018-08-28T19:37:09.163Z,95447.16
2018-08-28T19:39:38.171Z,95446.84
2018-08-28T19:42:07.201Z,95446.34
2018-08-28T19:44:36.551Z,95446.64
2018-08-28T19:47:05.694Z,95448.19
2018-08-28T19:49:34.694Z,95450.09
2018-08-28T19:52:03.628Z,95454.78
2018-08-28T19:54:32.870Z,95457.75
2018-08-28T19:57:01.948Z,95450.09
2018-08-28T19:59:30.906Z,95453.88
2018-08-28T20:01:59.875Z,95444.80
2018-08-28T20:04:29.025Z,95448.38
2018-08-28T20:06:58.128Z,95447.45
2018-08-28T20:09:27.209Z,95449.29
2018-08-28T20:11:56.294Z,95450.42
2018-08-28T20:14:25.344Z,95451.04
2018-08-28T20:16:54.323Z,95444.20
2018-08-28T20:19:23.307Z,95446.36
2018-08-28T20:21:52.488Z,95447.17
2018-08-28T20:24:21.606Z,95449.08
2018-08-28T20:26:50.978Z,95452.77
2018-08-28T20:29:19.955Z,95446.48
2018-08-28T20:31:49.005Z,95446.91
2018-08-28T20:34:18.088Z,95454.50
2018-08-28T20:36:47.083Z,95452.77
2018-08-28T20:39:16.272Z,95450.94
2018-08-28T20:41:45.380Z,95452.47
2018-08-28T20:44:14.529Z,95454.30
2018-08-28T20:46:43.555Z,95454.72
2018-08-28T20:49:12.548Z,95465.99
2018-08-28T20:51:41.620Z,95469.58
2018-08-28T20:54:10.563Z,95459.29
2018-08-28T20:56:39.906Z,95462.75
2018-08-28T20:59:08.959Z,95463.47
2018-08-28T21:01:38.023Z,95456.21
2018-08-28T21:04:07.072Z,95457.11
2018-08-28T21:06:36.129Z,95453.66
2018-08-28T21:09:06.004Z,95457.61
2018-08-28T21:11:35.033Z,95457.72
2018-08-28T21:14:04.139Z,95453.30
2018-08-28T21:16:33.243Z,95459.16
2018-08-28T21:19:02.517Z,95455.69
2018-08-28T21:21:31.506Z,95453.19
2018-08-28T21:24:00.531Z,95460.25
2018-08-28T21:26:29.496Z,95462.51
2018-08-28T21:28:58.629Z,95463.14
2018-08-28T21:31:27.663Z,95466.50
2018-08-28T21:33:56.751Z,95467.80
2018-08-28T21:36:25.787Z,95465.17
2018-08-28T21:38:54.972Z,95465.17
2018-08-28T21:41:23.945Z,95457.25
2018-08-28T21:43:53.104Z,95454.34
2018-08-28T21:46:22.198Z,95456.63
2018-08-28T21:48:51.271Z,95457.41
2018-08-28T21:51:20.346Z,95456.72
2018-08-28T21:53:49.528Z,95452.45
2018-08-28T21:56:18.563Z,95447.24
2018-08-28T21:58:47.518Z,95456.21
2018-08-28T22:01:16.908Z,95446.45
2018-08-28T22:03:45.882Z,95447.96
2018-08-28T22:06:19.904Z,95446.98
2018-08-28T22:08:48.895Z,95447.00
2018-08-28T22:11:17.908Z,95456.30
2018-08-28T22:13:46.906Z,95453.84
2018-08-28T22:16:16.040Z,95454.84
2018-08-28T22:18:45.154Z,95452.20
2018-08-28T22:21:14.272Z,95456.16
2018-08-28T22:23:43.352Z,95453.11
2018-08-28T22:26:12.295Z,95444.73
2018-08-28T22:28:41.428Z,95442.80
2018-08-28T22:31:10.458Z,95446.20
2018-08-28T22:33:39.511Z,95447.88
2018-08-28T22:36:08.829Z,95450.30
2018-08-28T22:38:39.976Z,95449.63
2018-08-28T22:41:08.985Z,95448.02
2018-08-28T22:43:39.010Z,95438.27
2018-08-28T22:46:08.325Z,95442.07
2018-08-28T22:48:37.927Z,95440.78
2018-08-28T22:51:08.842Z,95440.01
2018-08-28T22:53:38.220Z,95438.17
2018-08-28T22:56:08.922Z,95443.45
2018-08-28T22:58:37.890Z,95435.89
2018-08-28T23:01:07.371Z,95437.26
2018-08-28T23:03:36.378Z,95434.84
2018-08-28T23:06:05.463Z,95436.86
2018-08-28T23:08:34.537Z,95428.17
2018-08-28T23:11:05.744Z,95438.47
2018-08-28T23:13:34.832Z,95439.48
2018-08-28T23:16:04.233Z,95437.78
2018-08-28T23:18:33.328Z,95433.83
2018-08-28T23:21:02.391Z,95427.93
2018-08-28T23:23:31.375Z,95425.39
2018-08-28T23:26:00.367Z,95418.50
2018-08-28T23:28:29.406Z,95423.77
2018-08-28T23:30:58.362Z,95423.69
2018-08-28T23:33:27.374Z,95425.03
2018-08-28T23:35:56.360Z,95423.55
2018-08-28T23:38:25.477Z,95428.17
2018-08-28T23:40:54.531Z,95433.97
2018-08-28T23:43:23.551Z,95425.45
2018-08-28T23:45:52.596Z,95432.51
2018-08-28T23:48:21.683Z,95433.84
2018-08-28T23:50:50.789Z,95433.91
2018-08-28T23:53:19.878Z,95441.67
2018-08-28T23:55:48.945Z,95437.70
2018-08-28T23:58:18.005Z,95436.80
